createdAt,value
2022-12-20T00:01:30.676Z,53.40
2022-12-20T00:04:00.406Z,56.40
2022-12-20T00:06:28.179Z,52.87
2022-12-20T00:08:58.706Z,56.20
2022-12-20T00:11:27.157Z,52.10
2022-12-20T00:13:55.078Z,51.70
2022-12-20T00:16:25.027Z,52.03
2022-12-20T00:18:54.263Z,53.53
2022-12-20T00:21:22.617Z,49.33
2022-12-20T00:23:50.356Z,51.30
2022-12-20T00:26:21.783Z,50.07
2022-12-20T00:28:49.875Z,51.07
2022-12-20T00:31:20.306Z,52.23
2022-12-20T00:33:50.213Z,52.67
2022-12-20T00:36:19.078Z,53.37
2022-12-20T00:38:47.924Z,57.83
2022-12-20T00:41:17.950Z,48.97
2022-12-20T00:43:47.505Z,59.07
2022-12-20T00:46:16.720Z,56.10
2022-12-20T00:48:44.562Z,57.63
2022-12-20T00:51:14.997Z,53.37
2022-12-20T00:53:43.651Z,54.00
2022-12-20T00:56:12.843Z,54.83
2022-12-20T00:58:42.682Z,51.30
2022-12-20T01:01:19.855Z,52.57
2022-12-20T01:03:49.630Z,51.93
2022-12-20T01:06:18.200Z,57.20
2022-12-20T01:08:45.861Z,49.57
2022-12-20T01:11:16.114Z,49.80
2022-12-20T01:13:46.793Z,52.07
2022-12-20T01:16:19.199Z,54.57
2022-12-20T01:18:48.205Z,45.77
2022-12-20T01:21:17.632Z,51.17
2022-12-20T01:23:45.333Z,48.23
2022-12-20T01:26:15.020Z,48.20
2022-12-20T01:28:45.144Z,47.13
2022-12-20T01:31:16.179Z,49.00
2022-12-20T01:33:46.749Z,48.50
2022-12-20T01:36:16.558Z,44.17
2022-12-20T01:38:44.654Z,48.00
2022-12-20T01:41:16.654Z,52.03
2022-12-20T01:43:51.444Z,47.93
2022-12-20T01:46:20.572Z,49.10
2022-12-20T01:48:53.602Z,50.53
2022-12-20T01:51:22.255Z,47.10
2022-12-20T01:53:55.906Z,50.93
2022-12-20T01:56:24.024Z,48.67
2022-12-20T01:58:55.015Z,54.60
2022-12-20T02:01:23.982Z,46.87
2022-12-20T02:03:56.449Z,49.57
2022-12-20T02:06:26.001Z,50.10
2022-12-20T02:08:56.908Z,55.03
2022-12-20T02:11:59.260Z,50.43
2022-12-20T02:14:43.563Z,47.27
2022-12-20T02:17:19.168Z,48.50
2022-12-20T02:20:20.285Z,45.53
2022-12-20T02:23:09.874Z,45.67
2022-12-20T02:25:59.754Z,52.40
2022-12-20T02:28:45.737Z,53.23
2022-12-20T02:31:19.375Z,50.60
2022-12-20T02:33:49.967Z,46.77
2022-12-20T02:36:17.979Z,51.43
2022-12-20T02:38:46.896Z,44.90
2022-12-20T02:41:19.165Z,45.93
2022-12-20T02:44:08.917Z,44.83
2022-12-20T02:46:39.692Z,46.00
2022-12-20T02:49:14.703Z,47.63
2022-12-20T02:51:45.559Z,42.63
2022-12-20T02:54:14.310Z,39.60
2022-12-20T02:56:46.683Z,47.80
2022-12-20T02:59:19.340Z,44.50
2022-12-20T03:01:52.074Z,44.03
2022-12-20T03:04:22.864Z,43.73
2022-12-20T03:07:07.046Z,45.87
2022-12-20T03:09:37.911Z,41.90
2022-12-20T03:12:07.491Z,42.63
2022-12-20T03:14:38.031Z,42.50
2022-12-20T03:17:09.958Z,45.63
2022-12-20T03:19:39.357Z,43.57
2022-12-20T03:22:07.085Z,42.30
2022-12-20T03:24:34.838Z,41.60
2022-12-20T03:27:07.254Z,42.23
2022-12-20T03:29:35.038Z,43.23
2022-12-20T03:32:03.082Z,43.87
2022-12-20T03:34:32.234Z,38.33
2022-12-20T03:37:01.733Z,41.13
2022-12-20T03:39:29.662Z,40.30
2022-12-20T03:41:57.675Z,40.00
2022-12-20T03:44:26.363Z,41.13
2022-12-20T03:46:55.518Z,46.37
2022-12-20T03:49:23.346Z,40.43
2022-12-20T03:51:54.497Z,41.03
2022-12-20T03:54:23.744Z,41.37
2022-12-20T03:57:09.883Z,42.80
2022-12-20T03:59:37.975Z,39.67
2022-12-20T04:02:08.227Z,37.43
2022-12-20T04:04:36.012Z,39.93
2022-12-20T04:07:05.180Z,40.10
2022-12-20T04:09:34.404Z,39.30
2022-12-20T04:12:08.815Z,37.90
2022-12-20T04:14:38.780Z,38.70
2022-12-20T04:17:07.652Z,38.77
2022-12-20T04:19:36.271Z,37.57
2022-12-20T04:22:06.904Z,42.03
2022-12-20T04:24:49.542Z,39.03
2022-12-20T04:27:23.480Z,36.17
2022-12-20T04:29:53.672Z,40.63
2022-12-20T04:32:22.168Z,35.57
2022-12-20T04:34:50.777Z,37.13
2022-12-20T04:37:20.571Z,39.33
2022-12-20T04:39:53.340Z,35.67
2022-12-20T04:42:24.216Z,37.20
2022-12-20T04:44:53.556Z,38.23
2022-12-20T04:47:25.474Z,37.47
2022-12-20T04:49:54.716Z,36.27
2022-12-20T04:52:47.305Z,34.63
2022-12-20T04:55:16.081Z,36.70
2022-12-20T04:57:43.785Z,36.27
2022-12-20T05:00:15.326Z,35.90
2022-12-20T05:02:45.579Z,32.87
2022-12-20T05:05:16.996Z,37.73
2022-12-20T05:07:52.333Z,36.07
2022-12-20T05:10:21.483Z,33.33
2022-12-20T05:12:50.730Z,33.83
2022-12-20T05:15:29.563Z,37.93
2022-12-20T05:17:59.444Z,37.67
2022-12-20T05:20:32.877Z,35.33
2022-12-20T05:23:21.149Z,35.60
2022-12-20T05:26:12.278Z,36.30
2022-12-20T05:28:40.668Z,38.60
2022-12-20T05:31:08.408Z,40.00
2022-12-20T05:33:37.136Z,37.03
2022-12-20T05:36:06.939Z,35.23
2022-12-20T05:38:36.520Z,39.97
2022-12-20T05:41:10.257Z,36.57
2022-12-20T05:43:38.947Z,34.37
2022-12-20T05:46:07.905Z,35.37
2022-12-20T05:48:45.477Z,36.13
2022-12-20T05:51:13.592Z,31.80
2022-12-20T05:54:05.745Z,33.10
2022-12-20T05:56:47.278Z,34.77
2022-12-20T05:59:18.670Z,32.87
2022-12-20T06:01:47.585Z,34.37
2022-12-20T06:04:15.897Z,32.33
2022-12-20T06:06:45.169Z,36.80
2022-12-20T06:09:17.275Z,33.93
2022-12-20T06:11:51.030Z,34.90
2022-12-20T06:14:18.957Z,33.00
2022-12-20T06:16:48.969Z,32.77
2022-12-20T06:19:21.682Z,37.03
2022-12-20T06:21:52.541Z,33.00
2022-12-20T06:24:28.384Z,36.80
2022-12-20T06:26:56.405Z,34.63
2022-12-20T06:29:26.172Z,36.73
2022-12-20T06:32:05.318Z,34.03
2022-12-20T06:34:33.384Z,33.80
2022-12-20T06:37:01.967Z,34.33
2022-12-20T06:39:35.108Z,36.43
2022-12-20T06:42:09.137Z,32.63
2022-12-20T06:44:39.012Z,32.97
2022-12-20T06:47:06.944Z,31.67
2022-12-20T06:49:34.768Z,33.23
2022-12-20T06:52:10.181Z,33.10
2022-12-20T06:54:47.847Z,31.73
2022-12-20T06:57:15.937Z,34.50
2022-12-20T06:59:46.961Z,31.40
2022-12-20T07:02:15.527Z,31.97
2022-12-20T07:04:43.573Z,35.20
2022-12-20T07:07:13.053Z,29.80
2022-12-20T07:09:42.727Z,32.87
2022-12-20T07:12:12.455Z,29.10
2022-12-20T07:14:40.158Z,31.10
2022-12-20T07:17:08.434Z,29.40
2022-12-20T07:19:37.391Z,33.17
2022-12-20T07:22:05.916Z,32.03
2022-12-20T07:24:33.910Z,30.00
2022-12-20T07:27:02.633Z,30.53
2022-12-20T07:29:31.722Z,30.23
2022-12-20T07:32:00.180Z,31.70
2022-12-20T07:34:28.151Z,37.60
2022-12-20T07:36:55.844Z,32.13
2022-12-20T07:39:24.633Z,27.10
2022-12-20T07:41:55.241Z,32.37
2022-12-20T07:44:23.933Z,30.57
2022-12-20T07:46:53.223Z,28.90
2022-12-20T07:49:22.035Z,29.30
2022-12-20T07:51:52.628Z,30.07
2022-12-20T07:54:23.688Z,30.25
2022-12-20T07:56:55.894Z,25.97
2022-12-20T07:59:27.627Z,31.33
2022-12-20T08:02:02.555Z,27.77
2022-12-20T08:04:33.052Z,28.50
2022-12-20T08:07:02.675Z,26.90
2022-12-20T08:09:35.425Z,28.77
2022-12-20T08:12:03.535Z,30.23
2022-12-20T08:14:31.651Z,31.90
2022-12-20T08:17:00.838Z,30.70
2022-12-20T08:19:32.429Z,29.73
2022-12-20T08:22:00.744Z,30.87
2022-12-20T08:24:28.362Z,29.07
2022-12-20T08:26:56.391Z,27.40
2022-12-20T08:29:24.033Z,29.47
2022-12-20T08:31:52.306Z,27.10
2022-12-20T08:34:21.598Z,31.73
2022-12-20T08:36:49.293Z,27.80
2022-12-20T08:39:17.010Z,29.95
2022-12-20T08:41:44.703Z,26.13
2022-12-20T08:44:12.424Z,26.53
2022-12-20T08:46:40.143Z,26.70
2022-12-20T08:49:07.935Z,25.70
2022-12-20T08:51:37.041Z,26.80
2022-12-20T08:54:04.969Z,26.43
2022-12-20T08:56:32.717Z,26.63
2022-12-20T08:59:00.438Z,31.98
2022-12-20T09:01:30.305Z,27.13
2022-12-20T09:03:58.123Z,31.17
2022-12-20T09:06:26.099Z,38.72
2022-12-20T09:08:55.566Z,27.83
2022-12-20T09:11:25.317Z,25.93
2022-12-20T09:13:55.714Z,29.30
2022-12-20T09:16:26.702Z,28.27
2022-12-20T09:19:04.332Z,28.20
2022-12-20T09:21:33.119Z,29.80
2022-12-20T09:24:02.205Z,28.90
2022-12-20T09:26:30.629Z,28.95
2022-12-20T09:28:59.285Z,27.00
2022-12-20T09:31:27.751Z,28.93
2022-12-20T09:33:57.879Z,28.67
2022-12-20T09:36:27.884Z,30.13
2022-12-20T09:38:56.431Z,31.70
2022-12-20T09:41:32.772Z,26.87
2022-12-20T09:44:04.765Z,31.02
2022-12-20T09:46:33.161Z,33.55
2022-12-20T09:49:00.991Z,27.75
2022-12-20T09:51:40.465Z,29.03
2022-12-20T09:54:22.402Z,29.50
2022-12-20T09:57:01.241Z,26.97
2022-12-20T09:59:34.179Z,26.73
2022-12-20T10:02:44.050Z,27.30
2022-12-20T10:04:58.585Z,27.63
2022-12-20T10:07:36.794Z,26.70
2022-12-20T10:10:25.653Z,26.63
2022-12-20T10:13:07.278Z,25.80
2022-12-20T10:15:39.629Z,27.27
2022-12-20T10:18:23.178Z,26.00
2022-12-20T10:21:00.796Z,26.85
2022-12-20T10:23:34.723Z,24.50
2022-12-20T10:26:02.393Z,23.63
2022-12-20T10:28:35.509Z,28.07
2022-12-20T10:31:07.048Z,27.08
2022-12-20T10:33:35.491Z,27.17
2022-12-20T10:36:21.667Z,28.02
2022-12-20T10:38:51.613Z,24.85
2022-12-20T10:41:22.636Z,29.40
2022-12-20T10:43:56.229Z,30.63
2022-12-20T10:46:25.238Z,28.67
2022-12-20T10:48:52.943Z,30.45
2022-12-20T10:51:22.704Z,30.58
2022-12-20T10:53:57.145Z,26.25
2022-12-20T10:56:28.553Z,30.40
2022-12-20T10:59:02.965Z,27.52
2022-12-20T11:01:34.405Z,26.23
2022-12-20T11:04:04.395Z,28.27
2022-12-20T11:06:43.430Z,28.60
2022-12-20T11:09:23.261Z,29.15
2022-12-20T11:12:06.195Z,28.20
2022-12-20T11:14:39.623Z,29.25
2022-12-20T11:17:23.332Z,24.20
2022-12-20T11:20:14.451Z,24.55
2022-12-20T11:22:52.462Z,24.58
2022-12-20T11:25:32.773Z,24.92
2022-12-20T11:28:17.423Z,25.50
2022-12-20T11:30:55.171Z,26.88
2022-12-20T11:33:53.934Z,25.50
2022-12-20T11:36:34.083Z,24.08
2022-12-20T11:39:11.881Z,24.95
2022-12-20T11:41:47.618Z,23.77
2022-12-20T11:44:27.777Z,26.60
2022-12-20T11:47:25.276Z,28.67
2022-12-20T11:50:13.102Z,25.98
2022-12-20T11:52:48.516Z,24.70
2022-12-20T11:55:21.709Z,33.65
2022-12-20T11:58:28.125Z,27.83
2022-12-20T12:00:58.785Z,26.50
2022-12-20T12:03:33.742Z,28.77
2022-12-20T12:06:06.419Z,24.80
2022-12-20T12:08:43.539Z,24.13
2022-12-20T12:11:55.567Z,26.90
2022-12-20T12:14:08.192Z,26.45
2022-12-20T12:16:41.328Z,28.30
2022-12-20T12:19:13.277Z,28.35
2022-12-20T12:21:45.494Z,30.23
2022-12-20T12:24:24.307Z,32.30
2022-12-20T12:26:53.396Z,39.08
2022-12-20T12:29:22.056Z,30.70
2022-12-20T12:31:55.690Z,31.23
2022-12-20T12:34:40.035Z,29.58
2022-12-20T12:37:40.149Z,28.92
2022-12-20T12:40:46.079Z,34.33
2022-12-20T12:43:47.804Z,29.75
2022-12-20T12:46:19.774Z,32.45
2022-12-20T12:48:55.619Z,25.85
2022-12-20T12:51:31.430Z,28.48
2022-12-20T12:54:18.383Z,26.27
2022-12-20T12:56:47.426Z,24.88
2022-12-20T12:59:51.714Z,25.67
2022-12-20T13:02:37.405Z,25.13
2022-12-20T13:05:34.395Z,23.95
2022-12-20T13:08:04.610Z,27.00
2022-12-20T13:11:00.323Z,26.13
2022-12-20T13:13:28.334Z,23.73
2022-12-20T13:16:11.101Z,26.77
2022-12-20T13:18:38.879Z,22.10
2022-12-20T13:21:23.141Z,23.45
2022-12-20T13:24:42.230Z,24.42
2022-12-20T13:27:24.894Z,31.08
2022-12-20T13:29:57.064Z,27.00
2022-12-20T13:32:55.772Z,21.73
2022-12-20T13:35:33.046Z,23.73
2022-12-20T13:38:04.636Z,26.13
2022-12-20T13:40:39.432Z,24.92
2022-12-20T13:43:13.190Z,25.48
2022-12-20T13:45:47.160Z,25.30
2022-12-20T13:48:19.696Z,26.27
2022-12-20T13:50:50.948Z,25.02
2022-12-20T13:53:20.738Z,24.52
2022-12-20T13:55:50.683Z,24.52
2022-12-20T13:58:21.005Z,21.13
2022-12-20T14:00:50.827Z,21.42
2022-12-20T14:03:23.786Z,23.25
2022-12-20T14:05:57.471Z,21.05
2022-12-20T14:08:29.492Z,21.10
2022-12-20T14:11:08.947Z,21.60
2022-12-20T14:13:36.707Z,24.02
2022-12-20T14:16:09.338Z,20.83
2022-12-20T14:18:37.085Z,21.83
2022-12-20T14:21:06.539Z,22.95
2022-12-20T14:23:39.221Z,22.67
2022-12-20T14:26:12.922Z,24.65
2022-12-20T14:28:44.304Z,24.88
2022-12-20T14:31:25.376Z,23.25
2022-12-20T14:34:01.735Z,23.52
2022-12-20T14:36:30.565Z,24.15
2022-12-20T14:38:58.773Z,20.80
2022-12-20T14:41:37.208Z,22.80
2022-12-20T14:44:16.681Z,22.40
2022-12-20T14:46:49.813Z,25.38
2022-12-20T14:49:25.670Z,22.48
2022-12-20T14:52:06.510Z,22.25
2022-12-20T14:55:07.305Z,22.55
2022-12-20T14:57:30.472Z,21.33
2022-12-20T15:00:01.433Z,23.35
2022-12-20T15:02:36.819Z,22.08
2022-12-20T15:05:23.790Z,22.48
2022-12-20T15:07:51.497Z,21.45
2022-12-20T15:10:19.506Z,25.40
2022-12-20T15:12:48.537Z,21.73
2022-12-20T15:15:29.172Z,19.90
2022-12-20T15:17:57.648Z,22.25
2022-12-20T15:20:25.326Z,21.23
2022-12-20T15:22:53.175Z,19.13
2022-12-20T15:25:21.339Z,25.08
2022-12-20T15:27:50.651Z,21.45
2022-12-20T15:30:19.088Z,21.33
2022-12-20T15:32:55.293Z,22.10
2022-12-20T15:35:24.841Z,22.38
2022-12-20T15:37:53.020Z,25.02
2022-12-20T15:40:20.903Z,25.48
2022-12-20T15:42:50.009Z,26.42
2022-12-20T15:45:17.747Z,22.90
2022-12-20T15:47:45.567Z,23.73
2022-12-20T15:50:13.754Z,23.75
2022-12-20T15:52:41.857Z,23.25
2022-12-20T15:55:12.035Z,23.83
2022-12-20T15:57:39.638Z,23.33
2022-12-20T16:00:11.279Z,21.83
2022-12-20T16:02:41.855Z,20.40
2022-12-20T16:05:13.757Z,21.30
2022-12-20T16:07:41.528Z,21.13
2022-12-20T16:10:13.761Z,18.75
2022-12-20T16:12:42.018Z,22.20
2022-12-20T16:15:21.357Z,23.35
2022-12-20T16:17:49.116Z,22.17
2022-12-20T16:20:17.012Z,19.67
2022-12-20T16:22:44.807Z,20.23
2022-12-20T16:25:24.979Z,18.17
2022-12-20T16:27:52.811Z,19.05
2022-12-20T16:30:22.469Z,16.27
2022-12-20T16:32:51.178Z,19.40
2022-12-20T16:35:25.867Z,15.68
2022-12-20T16:37:54.355Z,18.00
2022-12-20T16:40:23.277Z,18.00
2022-12-20T16:42:50.981Z,18.20
2022-12-20T16:45:21.120Z,18.00
2022-12-20T16:47:50.410Z,19.25
2022-12-20T16:50:20.258Z,14.32
2022-12-20T16:52:48.002Z,27.67
2022-12-20T16:55:19.577Z,17.30
2022-12-20T16:57:47.389Z,15.93
2022-12-20T17:00:19.335Z,15.52
2022-12-20T17:02:47.264Z,17.55
2022-12-20T17:05:29.249Z,13.77
2022-12-20T17:07:57.389Z,15.10
2022-12-20T17:10:26.933Z,16.75
2022-12-20T17:12:54.741Z,15.55
2022-12-20T17:15:25.487Z,19.50
2022-12-20T17:17:54.095Z,15.98
2022-12-20T17:20:23.953Z,15.45
2022-12-20T17:25:40.356Z,15.98
2022-12-20T17:28:07.974Z,16.33
2022-12-20T17:30:35.971Z,15.88
2022-12-20T17:33:04.157Z,17.17
2022-12-20T17:35:33.956Z,14.52
2022-12-20T17:38:03.061Z,15.43
2022-12-20T17:40:31.349Z,15.88
2022-12-20T17:42:59.122Z,17.83
2022-12-20T17:45:30.660Z,16.30
2022-12-20T17:47:59.050Z,15.52
2022-12-20T17:50:27.676Z,16.05
2022-12-20T17:52:55.581Z,16.52
2022-12-20T17:55:27.091Z,17.20
2022-12-20T17:57:56.679Z,15.57
2022-12-20T18:00:30.751Z,17.77
2022-12-20T18:03:04.761Z,15.13
2022-12-20T18:05:32.497Z,19.95
2022-12-20T18:08:00.347Z,15.43
2022-12-20T18:10:29.351Z,16.23
2022-12-20T18:12:57.121Z,18.60
2022-12-20T18:15:25.086Z,16.88
2022-12-20T18:17:52.834Z,21.80
2022-12-20T18:20:20.676Z,17.50
2022-12-20T18:22:48.394Z,20.20
2022-12-20T18:25:18.212Z,17.83
2022-12-20T18:27:47.675Z,19.75
2022-12-20T18:30:15.701Z,17.88
2022-12-20T18:32:43.632Z,17.05
2022-12-20T18:35:11.923Z,21.83
2022-12-20T18:37:39.674Z,18.48
2022-12-20T18:40:09.147Z,18.05
2022-12-20T18:42:36.891Z,17.38
2022-12-20T18:45:07.087Z,19.42
2022-12-20T18:47:35.675Z,18.98
2022-12-20T18:50:03.476Z,17.13
2022-12-20T18:55:40.350Z,70.45
2022-12-20T18:58:08.049Z,20.33
2022-12-20T19:00:37.156Z,17.48
2022-12-20T19:03:05.176Z,22.30
2022-12-20T19:05:33.789Z,18.17
2022-12-20T19:08:01.684Z,18.77
2022-12-20T19:10:33.096Z,19.77
2022-12-20T19:13:05.751Z,17.55
2022-12-20T19:15:34.071Z,19.42
2022-12-20T19:18:03.251Z,21.83
2022-12-20T19:20:31.019Z,21.17
2022-12-20T19:22:58.748Z,18.38
2022-12-20T19:25:26.660Z,20.33
2022-12-20T19:27:54.650Z,20.50
2022-12-20T19:30:22.686Z,19.02
2022-12-20T19:32:50.492Z,20.27
2022-12-20T19:35:53.661Z,19.55
2022-12-20T19:38:08.112Z,21.73
2022-12-20T19:40:35.885Z,34.33
2022-12-20T19:43:03.898Z,22.95
2022-12-20T19:45:31.556Z,20.63
2022-12-20T19:47:59.261Z,20.55
2022-12-20T19:50:28.487Z,22.17
2022-12-20T19:52:56.391Z,20.50
2022-12-20T19:55:24.608Z,22.65
2022-12-20T19:57:52.322Z,23.40
2022-12-20T20:00:20.601Z,22.50
2022-12-20T20:02:48.597Z,23.80
2022-12-20T20:05:16.589Z,24.70
2022-12-20T20:07:46.296Z,23.02
2022-12-20T20:10:14.234Z,23.42
2022-12-20T20:12:41.984Z,19.95
2022-12-20T20:15:10.402Z,21.55
2022-12-20T20:17:38.378Z,22.40
2022-12-20T20:20:07.858Z,24.73
2022-12-20T20:22:35.651Z,23.95
2022-12-20T20:25:05.416Z,21.45
2022-12-20T20:27:33.180Z,23.60
2022-12-20T20:30:01.315Z,24.05
2022-12-20T20:32:29.130Z,23.25
2022-12-20T20:34:56.850Z,28.58
2022-12-20T20:37:25.071Z,25.92
2022-12-20T20:39:52.770Z,24.27
2022-12-20T20:42:23.629Z,21.80
2022-12-20T20:44:51.675Z,24.10
2022-12-20T20:47:20.724Z,20.70
2022-12-20T20:49:48.649Z,23.02
2022-12-20T20:52:16.490Z,22.30
2022-12-20T20:54:44.257Z,24.60
2022-12-20T20:57:12.066Z,25.42
2022-12-20T20:59:41.292Z,25.88
2022-12-20T21:02:13.306Z,22.65
2022-12-20T21:04:41.418Z,24.00
2022-12-20T21:07:09.862Z,25.73
2022-12-20T21:09:37.736Z,26.38
2022-12-20T21:12:06.018Z,24.48
2022-12-20T21:15:10.750Z,23.65
2022-12-20T21:17:23.074Z,25.33
2022-12-20T21:19:51.106Z,23.58
2022-12-20T21:22:19.469Z,22.65
2022-12-20T21:24:47.587Z,23.80
2022-12-20T21:27:15.408Z,24.15
2022-12-20T21:29:43.130Z,20.83
2022-12-20T21:32:11.151Z,20.33
2022-12-20T21:34:40.430Z,25.92
2022-12-20T21:37:08.553Z,21.42
2022-12-20T21:39:36.846Z,23.17
2022-12-20T21:42:04.680Z,17.90
2022-12-20T21:44:32.367Z,22.15
2022-12-20T21:47:00.417Z,21.75
2022-12-20T21:49:28.312Z,22.17
2022-12-20T21:51:58.196Z,20.98
2022-12-20T21:54:26.012Z,21.48
2022-12-20T21:56:53.680Z,22.30
2022-12-20T21:59:21.662Z,21.13
2022-12-20T22:01:49.816Z,24.38
2022-12-20T22:04:19.474Z,21.83
2022-12-20T22:06:47.233Z,20.20
2022-12-20T22:09:17.252Z,29.75
2022-12-20T22:11:47.324Z,25.05
2022-12-20T22:14:15.723Z,20.73
2022-12-20T22:16:44.339Z,26.40
2022-12-20T22:19:14.752Z,23.40
2022-12-20T22:21:42.459Z,22.63
2022-12-20T22:24:11.036Z,20.42
2022-12-20T22:26:41.507Z,18.65
2022-12-20T22:29:09.812Z,22.88
2022-12-20T22:31:38.429Z,20.27
2022-12-20T22:34:06.365Z,21.15
2022-12-20T22:36:34.254Z,34.22
2022-12-20T22:39:01.932Z,22.92
2022-12-20T22:41:32.355Z,20.27
2022-12-20T22:44:01.969Z,20.23
2022-12-20T22:46:30.703Z,23.60
2022-12-20T22:48:58.854Z,21.90
2022-12-20T22:51:27.942Z,23.70
2022-12-20T22:53:57.704Z,22.75
2022-12-20T22:56:25.560Z,23.83
2022-12-20T22:58:53.534Z,23.95
2022-12-20T23:01:22.819Z,20.73
2022-12-20T23:03:51.052Z,20.38
2022-12-20T23:06:20.808Z,22.58
2022-12-20T23:08:49.065Z,21.80
2022-12-20T23:11:36.974Z,25.05
2022-12-20T23:14:23.231Z,19.73
2022-12-20T23:16:52.787Z,22.90
2022-12-20T23:19:20.728Z,23.73
2022-12-20T23:22:05.874Z,22.50
2022-12-20T23:24:33.567Z,26.00
2022-12-20T23:27:02.417Z,21.42
2022-12-20T23:29:30.972Z,25.08
2022-12-20T23:32:00.193Z,24.08
2022-12-20T23:34:28.223Z,21.83
2022-12-20T23:36:56.277Z,23.70
2022-12-20T23:39:24.395Z,21.10
2022-12-20T23:41:52.045Z,23.83
2022-12-20T23:44:19.791Z,26.05
2022-12-20T23:46:47.796Z,21.77
2022-12-20T23:49:17.297Z,22.33
2022-12-20T23:51:45.053Z,23.55
2022-12-20T23:54:13.363Z,22.67
2022-12-20T23:56:41.057Z,27.63
2022-12-20T23:59:09.058Z,24.58
